FDX9900 EIDW-LFPG
Flight info
| Callsign | FDX9900 |
|---|---|
| Flight time | 1h 14m |
| Altitude | 35000 |
| Route | ENDEQ3J ENDEQ Q36 EPOXI L15 KEPAD L151 MID Y803 SFD/N0466F250 UM605 BIBAX |
| Aircraft | A306/H-SDE3FGHIRWY/LB1 |
Departure
| Time | 2026-04-30 19:02 |
|---|---|
| Airport | Dublin Airport (EIDW) |
Arrival
| Time | 2026-04-30 20:16 |
|---|---|
| Airport | Charles de Gaulle International Airport (LFPG) |
| Time | Latitude | Longitude | Altitude | Speed | Heading |
|---|---|---|---|---|---|
| 2026-04-30 19:01 | 53.52303 | -6.11354 | 10381 ft | 277 kts | 97° |
| 2026-04-30 19:02 | 53.51884 | -6.04889 | 12400 ft | 280 kts | 108° |
| 2026-04-30 19:02 | 53.50962 | -5.98455 | 14243 ft | 288 kts | 109° |
| 2026-04-30 19:03 | 53.49997 | -5.91845 | 15834 ft | 295 kts | 109° |
| 2026-04-30 19:03 | 53.49015 | -5.85061 | 17341 ft | 303 kts | 109° |
| 2026-04-30 19:04 | 53.48114 | -5.78055 | 18757 ft | 311 kts | 108° |
| 2026-04-30 19:04 | 53.47213 | -5.70877 | 19998 ft | 317 kts | 108° |
| 2026-04-30 19:05 | 53.46290 | -5.63564 | 21201 ft | 323 kts | 108° |
| 2026-04-30 19:05 | 53.45345 | -5.56123 | 22377 ft | 329 kts | 108° |
| 2026-04-30 19:06 | 53.44525 | -5.48471 | 23483 ft | 339 kts | 101° |
| 2026-04-30 19:06 | 53.44340 | -5.44556 | 23961 ft | 343 kts | 99° |
| 2026-04-30 19:06 | 53.44153 | -5.36471 | 24853 ft | 350 kts | 97° |
| 2026-04-30 19:07 | 53.44005 | -5.28257 | 25717 ft | 354 kts | 97° |
| 2026-04-30 19:07 | 53.43919 | -5.24139 | 26265 ft | 353 kts | 97° |
| 2026-04-30 19:08 | 53.43719 | -5.15953 | 27319 ft | 350 kts | 98° |
| 2026-04-30 19:08 | 53.43475 | -5.07828 | 28284 ft | 348 kts | 98° |
| 2026-04-30 19:08 | 53.43344 | -5.03782 | 28730 ft | 348 kts | 98° |
| 2026-04-30 19:09 | 53.43079 | -4.95685 | 29575 ft | 347 kts | 98° |
| 2026-04-30 19:09 | 53.42946 | -4.91643 | 29994 ft | 347 kts | 98° |
| 2026-04-30 19:09 | 53.42813 | -4.87603 | 30341 ft | 347 kts | 98° |
| 2026-04-30 19:10 | 53.42546 | -4.79538 | 30956 ft | 347 kts | 98° |
| 2026-04-30 19:10 | 53.42273 | -4.71445 | 31470 ft | 349 kts | 98° |
| 2026-04-30 19:11 | 53.42133 | -4.67368 | 31684 ft | 351 kts | 98° |
| 2026-04-30 19:11 | 53.41846 | -4.59126 | 32073 ft | 357 kts | 98° |
| 2026-04-30 19:11 | 53.41698 | -4.54952 | 32225 ft | 361 kts | 98° |
| 2026-04-30 19:12 | 53.41547 | -4.50732 | 32344 ft | 366 kts | 98° |
| 2026-04-30 19:12 | 53.41392 | -4.46438 | 32458 ft | 372 kts | 98° |
| 2026-04-30 19:12 | 53.41234 | -4.42082 | 32573 ft | 377 kts | 98° |
| 2026-04-30 19:13 | 53.40906 | -4.33189 | 32822 ft | 387 kts | 98° |
| 2026-04-30 19:13 | 53.40564 | -4.24056 | 33051 ft | 397 kts | 98° |
| 2026-04-30 19:13 | 53.40387 | -4.19412 | 33168 ft | 402 kts | 98° |
| 2026-04-30 19:14 | 53.40207 | -4.14717 | 33276 ft | 407 kts | 97° |
| 2026-04-30 19:14 | 53.39830 | -4.05112 | 33355 ft | 420 kts | 97° |
| 2026-04-30 19:15 | 53.39433 | -3.95183 | 33360 ft | 434 kts | 97° |
| 2026-04-30 19:15 | 53.39015 | -3.84927 | 33368 ft | 448 kts | 97° |
| 2026-04-30 19:15 | 53.38799 | -3.79698 | 33368 ft | 454 kts | 97° |
| 2026-04-30 19:16 | 53.38325 | -3.69067 | 33429 ft | 458 kts | 100° |
| 2026-04-30 19:16 | 53.36692 | -3.58909 | 34081 ft | 449 kts | 114° |
| 2026-04-30 19:17 | 53.35562 | -3.54117 | 34343 ft | 447 kts | 115° |
| 2026-04-30 19:17 | 53.32771 | -3.44894 | 34777 ft | 442 kts | 127° |
| 2026-04-30 19:17 | 53.30860 | -3.40802 | 34998 ft | 440 kts | 131° |
| 2026-04-30 19:18 | 53.27540 | -3.34348 | 35146 ft | 441 kts | 134° |
| 2026-04-30 19:18 | 53.24806 | -3.29235 | 35153 ft | 440 kts | 134° |
| 2026-04-30 19:19 | 53.20726 | -3.21641 | 35157 ft | 439 kts | 134° |
| 2026-04-30 19:19 | 53.14634 | -3.10240 | 35156 ft | 438 kts | 134° |
| 2026-04-30 19:20 | 53.10589 | -3.02661 | 35156 ft | 438 kts | 134° |
| 2026-04-30 19:21 | 53.04515 | -2.91321 | 35156 ft | 437 kts | 134° |
| 2026-04-30 19:22 | 52.96410 | -2.76277 | 35162 ft | 437 kts | 134° |
| 2026-04-30 19:23 | 52.84251 | -2.53883 | 35155 ft | 435 kts | 134° |
| 2026-04-30 19:24 | 52.77501 | -2.44027 | 35157 ft | 431 kts | 146° |
| 2026-04-30 19:25 | 52.65046 | -2.30302 | 35166 ft | 430 kts | 148° |
| 2026-04-30 19:26 | 52.55075 | -2.19419 | 35178 ft | 430 kts | 147° |
| 2026-04-30 19:27 | 52.47602 | -2.11274 | 35163 ft | 430 kts | 147° |
| 2026-04-30 19:28 | 52.40116 | -2.03152 | 35187 ft | 430 kts | 147° |
| 2026-04-30 19:29 | 52.30123 | -1.92362 | 35183 ft | 431 kts | 148° |
| 2026-04-30 19:30 | 52.20092 | -1.81595 | 35181 ft | 434 kts | 148° |
| 2026-04-30 19:31 | 52.09955 | -1.70771 | 35206 ft | 436 kts | 148° |
| 2026-04-30 19:31 | 52.02344 | -1.62668 | 35205 ft | 436 kts | 148° |
| 2026-04-30 19:32 | 51.97261 | -1.57284 | 35181 ft | 436 kts | 148° |
| 2026-04-30 19:32 | 51.92180 | -1.51928 | 35182 ft | 436 kts | 148° |
| 2026-04-30 19:33 | 51.87128 | -1.46616 | 35185 ft | 436 kts | 148° |
| 2026-04-30 19:33 | 51.82006 | -1.41238 | 35182 ft | 436 kts | 148° |
| 2026-04-30 19:34 | 51.76958 | -1.35951 | 35185 ft | 436 kts | 148° |
| 2026-04-30 19:35 | 51.69311 | -1.27968 | 35181 ft | 436 kts | 148° |
| 2026-04-30 19:35 | 51.64215 | -1.22667 | 35184 ft | 436 kts | 148° |
| 2026-04-30 19:36 | 51.59117 | -1.17378 | 35185 ft | 436 kts | 148° |
| 2026-04-30 19:36 | 51.51462 | -1.09463 | 35184 ft | 436 kts | 148° |
| 2026-04-30 19:37 | 51.46361 | -1.04207 | 35183 ft | 436 kts | 148° |
| 2026-04-30 19:37 | 51.41257 | -0.98962 | 35181 ft | 436 kts | 148° |
| 2026-04-30 19:38 | 51.37008 | -0.94607 | 35181 ft | 436 kts | 148° |
| 2026-04-30 19:38 | 51.31894 | -0.89378 | 35183 ft | 436 kts | 148° |
| 2026-04-30 19:39 | 51.26782 | -0.84165 | 35183 ft | 436 kts | 148° |
| 2026-04-30 19:39 | 51.21658 | -0.78954 | 35183 ft | 436 kts | 148° |
| 2026-04-30 19:40 | 51.16534 | -0.73756 | 35182 ft | 437 kts | 148° |
| 2026-04-30 19:40 | 51.11410 | -0.68572 | 35181 ft | 437 kts | 148° |
| 2026-04-30 19:41 | 51.06471 | -0.62934 | 35174 ft | 438 kts | 138° |
| 2026-04-30 19:41 | 51.02622 | -0.55445 | 35166 ft | 440 kts | 125° |
| 2026-04-30 19:42 | 50.99348 | -0.47216 | 35159 ft | 441 kts | 123° |
| 2026-04-30 19:42 | 50.96166 | -0.38888 | 35159 ft | 441 kts | 123° |
| 2026-04-30 19:43 | 50.92968 | -0.30601 | 35154 ft | 441 kts | 123° |
| 2026-04-30 19:44 | 50.88114 | -0.18215 | 35156 ft | 441 kts | 123° |
| 2026-04-30 19:44 | 50.84865 | -0.09982 | 35158 ft | 441 kts | 123° |
| 2026-04-30 19:45 | 50.81609 | -0.01754 | 35160 ft | 441 kts | 123° |
| 2026-04-30 19:45 | 50.78375 | 0.06396 | 35165 ft | 441 kts | 123° |
| 2026-04-30 19:46 | 50.74613 | 0.13817 | 35177 ft | 438 kts | 138° |
| 2026-04-30 19:46 | 50.70001 | 0.20117 | 35177 ft | 438 kts | 141° |
| 2026-04-30 19:47 | 50.65252 | 0.26153 | 35176 ft | 439 kts | 142° |
| 2026-04-30 19:47 | 50.60481 | 0.32161 | 35173 ft | 439 kts | 142° |
| 2026-04-30 19:48 | 50.55723 | 0.38182 | 35171 ft | 439 kts | 141° |
| 2026-04-30 19:48 | 50.50968 | 0.44212 | 35073 ft | 437 kts | 141° |
| 2026-04-30 19:48 | 50.48609 | 0.47201 | 34558 ft | 434 kts | 141° |
| 2026-04-30 19:49 | 50.46281 | 0.50146 | 34120 ft | 427 kts | 141° |
| 2026-04-30 19:49 | 50.41705 | 0.55924 | 33051 ft | 417 kts | 141° |
| 2026-04-30 19:49 | 50.39455 | 0.58758 | 32513 ft | 413 kts | 141° |
| 2026-04-30 19:50 | 50.37223 | 0.61567 | 31989 ft | 410 kts | 141° |
| 2026-04-30 19:50 | 50.35012 | 0.64343 | 31471 ft | 406 kts | 141° |
| 2026-04-30 19:50 | 50.32817 | 0.67098 | 30992 ft | 402 kts | 141° |
| 2026-04-30 19:50 | 50.30644 | 0.69822 | 30501 ft | 399 kts | 141° |
| 2026-04-30 19:51 | 50.28489 | 0.72520 | 29968 ft | 396 kts | 141° |
| 2026-04-30 19:51 | 50.26348 | 0.75198 | 29425 ft | 392 kts | 141° |
| 2026-04-30 19:51 | 50.24228 | 0.77847 | 28880 ft | 389 kts | 141° |
| 2026-04-30 19:51 | 50.22121 | 0.80476 | 28382 ft | 386 kts | 141° |
| 2026-04-30 19:52 | 50.20034 | 0.83078 | 27901 ft | 382 kts | 141° |
| 2026-04-30 19:52 | 50.17963 | 0.85655 | 27399 ft | 379 kts | 141° |
| 2026-04-30 19:52 | 50.15911 | 0.88208 | 26947 ft | 376 kts | 141° |
| 2026-04-30 19:52 | 50.13866 | 0.90747 | 26498 ft | 373 kts | 141° |
| 2026-04-30 19:53 | 50.11841 | 0.93259 | 26059 ft | 371 kts | 141° |
| 2026-04-30 19:53 | 50.09833 | 0.95747 | 25623 ft | 368 kts | 141° |
| 2026-04-30 19:53 | 50.07834 | 0.98222 | 25202 ft | 366 kts | 141° |
| 2026-04-30 19:53 | 50.05886 | 1.00747 | 24783 ft | 363 kts | 137° |
| 2026-04-30 19:54 | 50.04054 | 1.03432 | 24393 ft | 361 kts | 136° |
| 2026-04-30 19:54 | 50.02255 | 1.06124 | 24206 ft | 358 kts | 135° |
| 2026-04-30 19:54 | 50.00466 | 1.08814 | 24176 ft | 359 kts | 135° |
| 2026-04-30 19:54 | 49.98669 | 1.11521 | 24171 ft | 360 kts | 135° |
| 2026-04-30 19:55 | 49.96873 | 1.14225 | 24172 ft | 360 kts | 135° |
| 2026-04-30 19:55 | 49.95076 | 1.16931 | 24171 ft | 360 kts | 135° |
| 2026-04-30 19:55 | 49.93278 | 1.19638 | 24176 ft | 360 kts | 135° |
| 2026-04-30 19:55 | 49.91481 | 1.22339 | 24173 ft | 360 kts | 135° |
| 2026-04-30 19:56 | 49.89684 | 1.25039 | 24174 ft | 360 kts | 135° |
| 2026-04-30 19:56 | 49.87883 | 1.27741 | 24176 ft | 360 kts | 135° |
| 2026-04-30 19:56 | 49.86083 | 1.30439 | 24176 ft | 360 kts | 135° |
| 2026-04-30 19:56 | 49.84286 | 1.33130 | 24177 ft | 360 kts | 135° |
| 2026-04-30 19:57 | 49.82483 | 1.35827 | 24176 ft | 360 kts | 135° |
| 2026-04-30 19:57 | 49.80680 | 1.38520 | 24178 ft | 360 kts | 135° |
| 2026-04-30 19:57 | 49.78876 | 1.41214 | 24176 ft | 360 kts | 135° |
| 2026-04-30 19:57 | 49.77073 | 1.43901 | 24177 ft | 360 kts | 135° |
| 2026-04-30 19:58 | 49.75262 | 1.46599 | 24180 ft | 361 kts | 135° |
| 2026-04-30 19:58 | 49.73454 | 1.49289 | 24177 ft | 361 kts | 135° |
| 2026-04-30 19:58 | 49.71646 | 1.51976 | 24178 ft | 361 kts | 135° |
| 2026-04-30 19:58 | 49.69816 | 1.54625 | 24176 ft | 361 kts | 140° |
| 2026-04-30 19:59 | 49.67624 | 1.56516 | 24174 ft | 364 kts | 159° |
| 2026-04-30 19:59 | 49.65160 | 1.57458 | 24178 ft | 366 kts | 166° |
| 2026-04-30 19:59 | 49.60141 | 1.58924 | 24174 ft | 368 kts | 166° |
| 2026-04-30 20:00 | 49.57628 | 1.59651 | 24175 ft | 368 kts | 166° |
| 2026-04-30 20:00 | 49.55113 | 1.60376 | 24168 ft | 368 kts | 166° |
| 2026-04-30 20:00 | 49.52600 | 1.61099 | 24170 ft | 367 kts | 166° |
| 2026-04-30 20:00 | 49.50081 | 1.61822 | 24168 ft | 368 kts | 166° |
| 2026-04-30 20:01 | 49.45054 | 1.63263 | 24165 ft | 368 kts | 166° |
| 2026-04-30 20:01 | 49.42543 | 1.63979 | 24170 ft | 368 kts | 166° |
| 2026-04-30 20:01 | 49.40056 | 1.64686 | 24171 ft | 367 kts | 166° |
| 2026-04-30 20:02 | 49.35001 | 1.66120 | 23883 ft | 367 kts | 166° |
| 2026-04-30 20:02 | 49.32531 | 1.66818 | 23493 ft | 364 kts | 166° |
| 2026-04-30 20:03 | 49.27775 | 1.68144 | 22501 ft | 335 kts | 166° |
| 2026-04-30 20:03 | 49.25501 | 1.68778 | 21760 ft | 330 kts | 167° |
| 2026-04-30 20:03 | 49.23257 | 1.69408 | 21010 ft | 326 kts | 167° |
| 2026-04-30 20:03 | 49.21033 | 1.70037 | 20262 ft | 323 kts | 167° |
| 2026-04-30 20:04 | 49.18836 | 1.70667 | 19532 ft | 320 kts | 167° |
| 2026-04-30 20:04 | 49.16656 | 1.71299 | 18819 ft | 318 kts | 167° |
| 2026-04-30 20:04 | 49.14488 | 1.71934 | 18050 ft | 316 kts | 166° |
| 2026-04-30 20:05 | 49.10225 | 1.73197 | 16553 ft | 309 kts | 167° |
| 2026-04-30 20:05 | 49.08126 | 1.73827 | 15834 ft | 305 kts | 167° |
| 2026-04-30 20:05 | 49.04005 | 1.75078 | 14451 ft | 299 kts | 167° |
| 2026-04-30 20:06 | 49.01975 | 1.75704 | 13750 ft | 296 kts | 166° |
| 2026-04-30 20:06 | 49.00075 | 1.76801 | 12947 ft | 292 kts | 145° |
| 2026-04-30 20:06 | 48.98668 | 1.78978 | 12171 ft | 289 kts | 121° |
| 2026-04-30 20:06 | 48.98019 | 1.81841 | 11417 ft | 289 kts | 96° |
| 2026-04-30 20:07 | 48.98243 | 1.84859 | 10696 ft | 289 kts | 71° |
| 2026-04-30 20:07 | 48.99294 | 1.87460 | 9986 ft | 291 kts | 48° |
| 2026-04-30 20:07 | 49.02310 | 1.91525 | 8504 ft | 289 kts | 41° |
| 2026-04-30 20:08 | 49.03844 | 1.93487 | 7865 ft | 286 kts | 41° |
| 2026-04-30 20:08 | 49.04837 | 1.94762 | 7657 ft | 275 kts | 41° |
| 2026-04-30 20:08 | 49.06162 | 1.96467 | 7432 ft | 260 kts | 41° |
| 2026-04-30 20:08 | 49.07497 | 1.98235 | 7060 ft | 248 kts | 47° |
| 2026-04-30 20:09 | 49.08352 | 2.00430 | 6474 ft | 241 kts | 77° |
| 2026-04-30 20:09 | 49.08369 | 2.02933 | 5837 ft | 236 kts | 108° |
| 2026-04-30 20:09 | 49.06639 | 2.07036 | 4674 ft | 228 kts | 131° |
| 2026-04-30 20:10 | 49.04665 | 2.10686 | 4023 ft | 221 kts | 131° |
| 2026-04-30 20:10 | 49.03700 | 2.12490 | 4018 ft | 217 kts | 131° |
| 2026-04-30 20:10 | 49.02767 | 2.14189 | 4026 ft | 201 kts | 131° |
| 2026-04-30 20:11 | 49.01596 | 2.18062 | 4032 ft | 206 kts | 106° |
| 2026-04-30 20:11 | 49.01390 | 2.20231 | 4025 ft | 209 kts | 96° |
| 2026-04-30 20:11 | 49.01430 | 2.22446 | 4014 ft | 211 kts | 86° |
| 2026-04-30 20:12 | 49.01862 | 2.26884 | 3839 ft | 212 kts | 90° |
| 2026-04-30 20:12 | 49.01893 | 2.29089 | 3547 ft | 203 kts | 94° |
| 2026-04-30 20:12 | 49.01883 | 2.31201 | 3094 ft | 195 kts | 95° |
| 2026-04-30 20:13 | 49.01867 | 2.33183 | 2716 ft | 179 kts | 94° |
| 2026-04-30 20:13 | 49.01858 | 2.34945 | 2504 ft | 156 kts | 94° |
| 2026-04-30 20:13 | 49.01877 | 2.36543 | 2240 ft | 147 kts | 91° |
| 2026-04-30 20:13 | 49.01936 | 2.38091 | 1914 ft | 146 kts | 91° |
| 2026-04-30 20:14 | 49.01958 | 2.39633 | 1519 ft | 144 kts | 97° |
| 2026-04-30 20:14 | 49.01897 | 2.41108 | 1383 ft | 142 kts | 85° |
| 2026-04-30 20:14 | 49.02025 | 2.42612 | 1590 ft | 144 kts | 89° |
| 2026-04-30 20:14 | 49.02060 | 2.44140 | 1547 ft | 142 kts | 91° |
| 2026-04-30 20:15 | 49.02119 | 2.45619 | 1330 ft | 136 kts | 88° |
| 2026-04-30 20:15 | 49.02188 | 2.46997 | 1140 ft | 130 kts | 87° |
| 2026-04-30 20:15 | 49.02262 | 2.48385 | 960 ft | 134 kts | 86° |
| 2026-04-30 20:15 | 49.02334 | 2.49801 | 777 ft | 135 kts | 85° |
| 2026-04-30 20:16 | 49.02409 | 2.51235 | 593 ft | 137 kts | 86° |
| 2026-04-30 20:16 | 49.02485 | 2.52677 | 414 ft | 136 kts | 85° |
| 2026-04-30 20:16 | 49.02552 | 2.53941 | 368 ft | 80 kts | 85° |
| 2026-04-30 20:16 | 49.02578 | 2.54463 | 364 ft | 38 kts | 88° |
| 2026-04-30 20:17 | 49.02588 | 2.54833 | 359 ft | 32 kts | 87° |
| 2026-04-30 20:17 | 49.02585 | 2.55096 | 363 ft | 15 kts | 94° |
| 2026-04-30 20:17 | 49.02575 | 2.55233 | 366 ft | 12 kts | 95° |
| 2026-04-30 20:17 | 49.02560 | 2.55326 | 362 ft | 7 kts | 110° |
| 2026-04-30 20:18 | 49.02542 | 2.55387 | 367 ft | 6 kts | 115° |
| 2026-04-30 20:18 | 49.02515 | 2.55475 | 362 ft | 13 kts | 116° |
| 2026-04-30 20:18 | 49.02452 | 2.55597 | 364 ft | 17 kts | 152° |
| 2026-04-30 20:18 | 49.02316 | 2.55624 | 367 ft | 23 kts | 176° |
| 2026-04-30 20:19 | 49.02143 | 2.55644 | 364 ft | 25 kts | 179° |
| 2026-04-30 20:19 | 49.02064 | 2.55532 | 367 ft | 27 kts | 266° |
| 2026-04-30 20:19 | 49.02045 | 2.55102 | 367 ft | 35 kts | 266° |
| 2026-04-30 20:19 | 49.01956 | 2.54825 | 366 ft | 21 kts | 202° |
| 2026-04-30 20:20 | 49.01871 | 2.54840 | 364 ft | 0 kts | 170° |
| 2026-04-30 20:20 | 49.01865 | 2.54842 | 363 ft | 1 kts | 170° |
| 2026-04-30 20:20 | 49.01859 | 2.54844 | 365 ft | 5 kts | 170° |
| 2026-04-30 20:21 | 49.01772 | 2.54865 | 361 ft | 18 kts | 172° |
| 2026-04-30 20:21 | 49.01649 | 2.54883 | 361 ft | 17 kts | 175° |
| 2026-04-30 20:21 | 49.01535 | 2.54894 | 363 ft | 16 kts | 176° |
| 2026-04-30 20:21 | 49.01430 | 2.54906 | 366 ft | 14 kts | 172° |
| 2026-04-30 20:22 | 49.01337 | 2.54937 | 367 ft | 15 kts | 165° |
| 2026-04-30 20:22 | 49.01237 | 2.54918 | 361 ft | 19 kts | 247° |
| 2026-04-30 20:22 | 49.01216 | 2.54672 | 366 ft | 28 kts | 264° |
| 2026-04-30 20:22 | 49.01201 | 2.54451 | 365 ft | 35 kts | 266° |
| 2026-04-30 20:23 | 49.01190 | 2.54155 | 356 ft | 14 kts | 266° |
| 2026-04-30 20:23 | 49.01183 | 2.54028 | 358 ft | 10 kts | 264° |
| 2026-04-30 20:23 | 49.01179 | 2.53931 | 365 ft | 11 kts | 267° |
| 2026-04-30 20:23 | 49.01193 | 2.53784 | 360 ft | 15 kts | 295° |
| 2026-04-30 20:24 | 49.01260 | 2.53678 | 363 ft | 13 kts | 328° |
| 2026-04-30 20:24 | 49.01344 | 2.53629 | 364 ft | 12 kts | 343° |
| 2026-04-30 20:24 | 49.01425 | 2.53617 | 362 ft | 11 kts | 0° |
| 2026-04-30 20:24 | 49.01510 | 2.53611 | 364 ft | 15 kts | 357° |
| 2026-04-30 20:25 | 49.01677 | 2.53369 | 365 ft | 21 kts | 270° |
| 2026-04-30 20:25 | 49.01667 | 2.53147 | 360 ft | 21 kts | 266° |
| 2026-04-30 20:26 | 49.01641 | 2.52723 | 366 ft | 21 kts | 252° |
| 2026-04-30 20:26 | 49.01534 | 2.52406 | 360 ft | 16 kts | 265° |
| 2026-04-30 20:26 | 49.01524 | 2.52238 | 365 ft | 16 kts | 265° |
| 2026-04-30 20:27 | 49.01510 | 2.51920 | 360 ft | 16 kts | 266° |
| 2026-04-30 20:27 | 49.01489 | 2.51506 | 362 ft | 19 kts | 265° |
| 2026-04-30 20:28 | 49.01467 | 2.51123 | 362 ft | 17 kts | 265° |
| 2026-04-30 20:28 | 49.01452 | 2.50784 | 362 ft | 15 kts | 266° |
| 2026-04-30 20:29 | 49.01435 | 2.50486 | 358 ft | 16 kts | 263° |
| 2026-04-30 20:30 | 49.01174 | 2.50402 | 361 ft | 13 kts | 175° |
| 2026-04-30 20:30 | 49.01095 | 2.50273 | 363 ft | 0 kts | 265° |
| 2026-04-30 20:31 | 49.01095 | 2.50274 | 363 ft | 0 kts | 265° |